Terminal Aerodrome Forecast
Issued by NWS Cleveland, OH

Home | Current Version | Previous Version | Graphics & Text | Print | Product List | Glossary On
Versions: 1 2 3 4 5 6 7 8 9 10 11 12 13 14 15 16 17 18 19 20 21 22 23 24 25 26 27 28 29
000
FTUS41 KCLE 220813 AAC
TAFTOL
TAF AMD
KTOL 220813Z 2208/2306 20004KT P6SM SCT080 BKN200
      TEMPO 2209/2211 00000KT 2SM BR VV008
     FM221100 00000KT 2SM BR VV008
      TEMPO 2212/2214 1/2SM FG VV004
     FM221400 21003KT 3SM BR BKN008
      TEMPO 2214/2218 6SM BR BKN010
     FM221800 22008KT P6SM OVC025
     FM222100 22008KT P6SM BKN045
     FM230400 20008KT 5SM BR OVC025=

USA.gov is the U.S. government's official web portal to all federal, state and local government web resources and services.